createdAt,value
2022-09-18T00:01:19.968Z,97323.19
2022-09-18T00:03:46.223Z,97324.50
2022-09-18T00:06:15.599Z,97330.09
2022-09-18T00:08:41.889Z,97326.38
2022-09-18T00:11:08.295Z,97338.38
2022-09-18T00:13:34.583Z,97327.97
2022-09-18T00:16:00.954Z,97330.63
2022-09-18T00:18:27.320Z,97335.41
2022-09-18T00:20:53.584Z,97337.53
2022-09-18T00:23:19.853Z,97340.47
2022-09-18T00:25:46.399Z,97328.47
2022-09-18T00:28:12.672Z,97337.50
2022-09-18T00:30:39.360Z,97336.97
2022-09-18T00:33:05.666Z,97330.84
2022-09-18T00:35:32.008Z,97342.56
2022-09-18T00:37:58.240Z,97348.97
2022-09-18T00:40:24.693Z,97348.16
2022-09-18T00:42:51.256Z,97342.25
2022-09-18T00:45:17.585Z,97343.34
2022-09-18T00:47:43.869Z,97323.72
2022-09-18T00:50:10.192Z,97337.72
2022-09-18T00:52:36.495Z,97351.84
2022-09-18T00:55:03.321Z,97349.66
2022-09-18T00:57:29.821Z,97345.41
2022-09-18T00:59:56.513Z,97349.91
2022-09-18T01:02:22.848Z,97356.31
2022-09-18T01:04:49.217Z,97353.91
2022-09-18T01:07:15.457Z,97353.09
2022-09-18T01:09:41.800Z,97354.16
2022-09-18T01:12:08.306Z,97354.41
2022-09-18T01:14:34.576Z,97352.81
2022-09-18T01:17:00.911Z,97358.16
2022-09-18T01:19:27.473Z,97368.25
2022-09-18T01:21:54.486Z,97366.66
2022-09-18T01:24:20.775Z,97365.84
2022-09-18T01:26:47.080Z,97371.44
2022-09-18T01:29:13.395Z,97371.44
2022-09-18T01:31:39.802Z,97370.91
2022-09-18T01:34:06.240Z,97374.59
2022-09-18T01:36:32.548Z,97365.81
2022-09-18T01:38:59.817Z,97369.53
2022-09-18T01:41:26.167Z,97367.13
2022-09-18T01:43:52.641Z,97375.38
2022-09-18T01:46:19.271Z,97366.56
2022-09-18T01:48:45.843Z,97365.78
2022-09-18T01:51:12.137Z,97370.03
2022-09-18T01:53:38.419Z,97366.81
2022-09-18T01:56:04.667Z,97365.22
2022-09-18T01:58:31.047Z,97360.94
2022-09-18T02:00:57.517Z,97368.16
2022-09-18T02:03:23.874Z,97368.16
2022-09-18T02:05:50.185Z,97367.34
2022-09-18T02:08:16.471Z,97377.19
2022-09-18T02:10:42.733Z,97366.53
2022-09-18T02:13:09.019Z,97366.53
2022-09-18T02:15:35.424Z,97362.28
2022-09-18T02:18:01.697Z,97362.28
2022-09-18T02:20:28.029Z,97363.31
2022-09-18T02:22:54.393Z,97365.97
2022-09-18T02:25:20.806Z,97354.53
2022-09-18T02:27:50.205Z,97368.13
2022-09-18T02:30:17.104Z,97370.78
2022-09-18T02:32:43.559Z,97366.50
2022-09-18T02:35:09.888Z,97364.91
2022-09-18T02:37:36.392Z,97369.69
2022-09-18T02:40:02.709Z,97364.34
2022-09-18T02:42:29.060Z,97356.59
2022-09-18T02:44:55.422Z,97361.94
2022-09-18T02:47:21.854Z,97361.94
2022-09-18T02:49:48.226Z,97367.28
2022-09-18T02:52:21.255Z,97373.91
2022-09-18T02:54:47.563Z,97369.63
2022-09-18T02:57:13.831Z,97363.50
2022-09-18T02:59:40.219Z,97368.56
2022-09-18T03:02:06.659Z,97366.19
2022-09-18T03:04:33.258Z,97368.06
2022-09-18T03:06:59.539Z,97357.66
2022-09-18T03:09:25.838Z,97356.88
2022-09-18T03:11:52.437Z,97355.50
2022-09-18T03:14:18.780Z,97363.50
2022-09-18T03:16:45.068Z,97359.22
2022-09-18T03:19:11.989Z,97359.47
2022-09-18T03:21:38.308Z,97364.25
2022-09-18T03:24:04.574Z,97356.50
2022-09-18T03:26:30.906Z,97355.16
2022-09-18T03:28:57.249Z,97355.41
2022-09-18T03:31:23.651Z,97357.53
2022-09-18T03:33:50.197Z,97354.31
2022-09-18T03:36:16.596Z,97359.88
2022-09-18T03:38:42.867Z,97352.16
2022-09-18T03:41:09.230Z,97364.91
2022-09-18T03:43:35.479Z,97359.84
2022-09-18T03:46:01.892Z,97353.16
2022-09-18T03:48:31.550Z,97352.38
2022-09-18T03:50:57.946Z,97359.81
2022-09-18T03:53:26.956Z,97355.50
2022-09-18T03:55:53.274Z,97336.31
2022-09-18T03:58:20.044Z,97350.69
2022-09-18T04:00:46.427Z,97347.47
2022-09-18T04:03:14.031Z,97346.66
2022-09-18T04:05:40.395Z,97352.25
2022-09-18T04:08:06.760Z,97358.66
2022-09-18T04:10:33.757Z,97353.84
2022-09-18T04:13:00.003Z,97357.53
2022-09-18T04:15:26.286Z,97363.94
2022-09-18T04:17:52.561Z,97362.31
2022-09-18T04:20:18.860Z,97368.69
2022-09-18T04:22:45.081Z,97368.13
2022-09-18T04:25:11.295Z,97370.00
2022-09-18T04:27:37.715Z,97370.25
2022-09-18T04:30:04.049Z,97364.91
2022-09-18T04:32:30.291Z,97368.66
2022-09-18T04:34:56.573Z,97367.84
2022-09-18T04:37:22.869Z,97363.59
2022-09-18T04:39:49.122Z,97368.09
2022-09-18T04:42:15.397Z,97363.03
2022-09-18T04:44:41.649Z,97367.78
2022-09-18T04:47:07.921Z,97359.78
2022-09-18T04:49:34.219Z,97366.97
2022-09-18T04:52:00.561Z,97364.53
2022-09-18T04:54:26.885Z,97369.03
2022-09-18T04:56:53.201Z,97361.31
2022-09-18T04:59:19.555Z,97363.72
2022-09-18T05:01:46.002Z,97367.44
2022-09-18T05:04:12.445Z,97365.84
2022-09-18T05:06:38.778Z,97356.25
2022-09-18T05:09:05.202Z,97358.09
2022-09-18T05:11:31.490Z,97362.63
2022-09-18T05:13:57.835Z,97367.97
2022-09-18T05:16:24.177Z,97367.16
2022-09-18T05:18:50.613Z,97363.66
2022-09-18T05:21:16.884Z,97371.66
2022-09-18T05:23:43.204Z,97369.00
2022-09-18T05:26:09.485Z,97365.56
2022-09-18T05:28:35.754Z,97354.09
2022-09-18T05:31:02.083Z,97367.41
2022-09-18T05:33:28.440Z,97371.91
2022-09-18T05:35:54.710Z,97366.59
2022-09-18T05:38:21.108Z,97369.03
2022-09-18T05:40:47.398Z,97365.84
2022-09-18T05:43:13.730Z,97366.06
2022-09-18T05:45:40.001Z,97363.66
2022-09-18T05:48:06.201Z,97369.00
2022-09-18T05:50:32.518Z,97370.88
2022-09-18T05:52:58.808Z,97370.88
2022-09-18T05:55:25.170Z,97381.03
2022-09-18T05:57:51.434Z,97372.53
2022-09-18T06:00:17.883Z,97375.53
2022-09-18T06:02:44.266Z,97369.69
2022-09-18T06:05:10.540Z,97362.56
2022-09-18T06:07:38.062Z,97373.53
2022-09-18T06:10:04.326Z,97370.34
2022-09-18T06:12:30.583Z,97377.84
2022-09-18T06:14:56.889Z,97373.56
2022-09-18T06:17:23.265Z,97378.88
2022-09-18T06:19:49.545Z,97381.31
2022-09-18T06:22:15.856Z,97388.00
2022-09-18T06:24:42.252Z,97379.75
2022-09-18T06:27:08.594Z,97369.09
2022-09-18T06:29:34.902Z,97372.31
2022-09-18T06:32:01.196Z,97380.31
2022-09-18T06:34:27.435Z,97381.91
2022-09-18T06:36:53.689Z,97379.50
2022-09-18T06:39:26.144Z,97384.28
2022-09-18T06:41:52.542Z,97380.56
2022-09-18T06:44:18.791Z,97382.16
2022-09-18T06:46:45.112Z,97382.97
2022-09-18T06:49:11.367Z,97384.81
2022-09-18T06:51:37.619Z,97387.50
2022-09-18T06:54:04.049Z,97382.16
2022-09-18T06:56:30.341Z,97382.16
2022-09-18T06:58:56.668Z,97380.31
2022-09-18T07:01:22.960Z,97381.69
2022-09-18T07:03:49.288Z,97379.78
2022-09-18T07:06:15.583Z,97379.53
2022-09-18T07:08:41.979Z,97363.22
2022-09-18T07:11:08.206Z,97383.28
2022-09-18T07:13:34.604Z,97381.69
2022-09-18T07:16:01.032Z,97377.94
2022-09-18T07:18:27.339Z,97377.13
2022-09-18T07:20:53.626Z,97375.84
2022-09-18T07:23:19.891Z,97375.59
2022-09-18T07:25:46.129Z,97373.72
2022-09-18T07:28:12.470Z,97376.13
2022-09-18T07:30:38.740Z,97381.25
2022-09-18T07:33:11.922Z,97388.00
2022-09-18T07:35:38.246Z,97392.03
2022-09-18T07:38:04.530Z,97389.19
2022-09-18T07:40:34.007Z,97385.50
2022-09-18T07:43:00.361Z,97394.91
2022-09-18T07:45:26.658Z,97391.44
2022-09-18T07:47:52.986Z,97392.56
2022-09-18T07:50:19.287Z,97392.84
2022-09-18T07:52:45.693Z,97408.34
2022-09-18T07:55:11.949Z,97399.88
2022-09-18T07:57:38.227Z,97397.22
2022-09-18T08:00:04.479Z,97402.03
2022-09-18T08:02:30.896Z,97402.81
2022-09-18T08:04:57.301Z,97405.25
2022-09-18T08:07:23.580Z,97403.91
2022-09-18T08:09:49.909Z,97402.88
2022-09-18T08:12:16.306Z,97408.72
2022-09-18T08:14:42.772Z,97409.84
2022-09-18T08:17:09.047Z,97406.41
2022-09-18T08:19:35.351Z,97405.63
2022-09-18T08:22:01.648Z,97402.16
2022-09-18T08:24:29.072Z,97393.88
2022-09-18T08:26:55.509Z,97393.66
2022-09-18T08:29:21.879Z,97389.91
2022-09-18T08:31:48.198Z,97389.38
2022-09-18T08:34:14.520Z,97391.31
2022-09-18T08:36:40.883Z,97386.78
2022-09-18T08:39:07.186Z,97394.31
2022-09-18T08:41:33.498Z,97390.06
2022-09-18T08:43:59.787Z,97392.47
2022-09-18T08:46:26.220Z,97391.41
2022-09-18T08:48:52.779Z,97396.78
2022-09-18T08:51:19.226Z,97389.06
2022-09-18T08:53:45.486Z,97397.59
2022-09-18T08:56:12.085Z,97389.03
2022-09-18T08:58:38.386Z,97389.56
2022-09-18T09:01:04.727Z,97383.72
2022-09-18T09:03:31.099Z,97385.84
2022-09-18T09:05:57.449Z,97381.03
2022-09-18T09:08:23.730Z,97367.94
2022-09-18T09:10:50.141Z,97374.09
2022-09-18T09:13:16.411Z,97386.63
2022-09-18T09:15:42.685Z,97375.69
2022-09-18T09:18:08.963Z,97378.09
2022-09-18T09:20:35.433Z,97380.25
2022-09-18T09:23:01.945Z,97376.25
2022-09-18T09:25:28.522Z,97379.47
2022-09-18T09:27:54.846Z,97382.13
2022-09-18T09:30:21.177Z,97367.69
2022-09-18T09:32:47.746Z,97363.16
2022-09-18T09:35:14.309Z,97364.00
2022-09-18T09:37:42.309Z,97366.66
2022-09-18T09:40:11.799Z,97370.38
2022-09-18T09:42:38.413Z,97365.84
2022-09-18T09:45:04.985Z,97362.91
2022-09-18T09:47:40.418Z,97362.91
2022-09-18T09:52:51.434Z,97367.75
2022-09-18T09:55:18.391Z,97357.59
2022-09-18T09:57:44.940Z,97364.53
2022-09-18T10:00:11.691Z,97359.75
2022-09-18T10:02:39.197Z,97353.34
2022-09-18T10:05:05.535Z,97355.19
2022-09-18T10:07:31.845Z,97353.59
2022-09-18T10:09:58.207Z,97360.25
2022-09-18T10:12:24.554Z,97361.88
2022-09-18T10:14:50.958Z,97363.47
2022-09-18T10:17:17.408Z,97367.75
2022-09-18T10:19:43.744Z,97357.63
2022-09-18T10:22:10.045Z,97368.03
2022-09-18T10:24:36.372Z,97372.56
2022-09-18T10:27:02.715Z,97371.75
2022-09-18T10:29:32.671Z,97369.91
2022-09-18T10:32:01.520Z,97372.56
2022-09-18T10:34:28.018Z,97363.50
2022-09-18T10:36:54.371Z,97366.19
2022-09-18T10:39:20.745Z,97362.47
2022-09-18T10:41:47.046Z,97372.06
2022-09-18T10:44:13.493Z,97360.59
2022-09-18T10:46:39.978Z,97370.72
2022-09-18T10:49:06.384Z,97371.75
2022-09-18T10:51:32.676Z,97376.88
2022-09-18T10:53:59.056Z,97375.25
2022-09-18T10:56:25.343Z,97371.53
2022-09-18T10:58:52.045Z,97367.81
2022-09-18T11:01:18.441Z,97369.66
2022-09-18T11:03:44.958Z,97377.41
2022-09-18T11:06:11.440Z,97375.56
2022-09-18T11:08:37.837Z,97368.34
2022-09-18T11:11:04.154Z,97375.56
2022-09-18T11:13:30.788Z,97377.16
2022-09-18T11:15:58.636Z,97377.97
2022-09-18T11:18:25.144Z,97368.09
2022-09-18T11:20:51.798Z,97377.97
2022-09-18T11:23:18.184Z,97371.03
2022-09-18T11:25:44.774Z,97367.28
2022-09-18T11:28:11.303Z,97362.75
2022-09-18T11:30:37.819Z,97371.56
2022-09-18T11:33:04.147Z,97351.19
2022-09-18T11:35:30.452Z,97366.75
2022-09-18T11:37:56.768Z,97364.06
2022-09-18T11:40:23.242Z,97365.97
2022-09-18T11:42:49.622Z,97362.47
2022-09-18T11:45:16.045Z,97364.06
2022-09-18T11:47:42.384Z,97361.66
2022-09-18T11:50:08.729Z,97355.53
2022-09-18T11:52:35.051Z,97355.53
2022-09-18T11:55:01.446Z,97352.88
2022-09-18T11:57:27.961Z,97346.72
2022-09-18T11:59:54.314Z,97356.59
2022-09-18T12:02:20.781Z,97352.06
2022-09-18T12:04:47.569Z,97351.25
2022-09-18T12:07:14.171Z,97352.06
2022-09-18T12:09:39.246Z,97350.19
2022-09-18T12:12:05.702Z,97347.00
2022-09-18T12:14:32.119Z,97345.91
2022-09-18T12:17:00.975Z,97340.56
2022-09-18T12:19:27.489Z,97337.34
2022-09-18T12:21:53.888Z,97341.63
2022-09-18T12:24:20.668Z,97347.00
2022-09-18T12:26:54.314Z,97337.88
2022-09-18T12:29:20.671Z,97334.41
2022-09-18T12:31:47.161Z,97338.97
2022-09-18T12:34:13.997Z,97340.84
2022-09-18T12:36:41.078Z,97343.22
2022-09-18T12:39:12.332Z,97335.50
2022-09-18T12:41:39.708Z,97330.97
2022-09-18T12:44:06.262Z,97321.31
2022-09-18T12:46:32.602Z,97332.00
2022-09-18T12:48:59.108Z,97327.75
2022-09-18T12:51:25.685Z,97330.41
2022-09-18T12:53:52.110Z,97326.66
2022-09-18T12:56:18.612Z,97318.91
2022-09-18T12:58:45.752Z,97318.09
2022-09-18T13:01:19.336Z,97325.06
2022-09-18T13:03:49.170Z,97326.13
2022-09-18T13:06:23.078Z,97318.91
2022-09-18T13:08:49.781Z,97306.59
2022-09-18T13:11:16.357Z,97324.25
2022-09-18T13:13:42.893Z,97323.44
2022-09-18T13:16:14.655Z,97321.81
2022-09-18T13:18:44.565Z,97323.13
2022-09-18T13:21:11.325Z,97325.28
2022-09-18T13:23:37.951Z,97338.88
2022-09-18T13:26:04.392Z,97345.28
2022-09-18T13:28:33.728Z,97341.81
2022-09-18T13:31:00.331Z,97333.78
2022-09-18T13:33:26.897Z,97334.59
2022-09-18T13:35:53.542Z,97339.94
2022-09-18T13:38:19.915Z,97338.31
2022-09-18T13:40:46.306Z,97343.66
2022-09-18T13:43:12.675Z,97336.47
2022-09-18T13:45:39.006Z,97326.59
2022-09-18T13:48:05.331Z,97327.63
2022-09-18T13:50:31.630Z,97322.53
2022-09-18T13:52:58.050Z,97323.06
2022-09-18T13:55:24.327Z,97318.50
2022-09-18T13:57:50.651Z,97328.13
2022-09-18T14:00:17.012Z,97307.31
2022-09-18T14:02:43.515Z,97306.25
2022-09-18T14:05:09.993Z,97253.38
2022-09-18T14:07:36.391Z,97248.59
2022-09-18T14:10:04.545Z,97242.97
2022-09-18T14:12:31.206Z,97254.19
2022-09-18T14:14:57.536Z,97253.94
2022-09-18T14:17:23.860Z,97245.13
2022-09-18T14:19:50.183Z,97251.81
2022-09-18T14:22:16.555Z,97234.16
2022-09-18T14:24:43.574Z,97227.22
2022-09-18T14:27:09.909Z,97256.34
2022-09-18T14:29:57.759Z,97251.81
2022-09-18T14:32:41.981Z,97222.44
2022-09-18T14:57:46.304Z,97258.19
2022-09-18T15:00:12.943Z,97247.78
2022-09-18T15:02:39.374Z,97248.03
2022-09-18T15:05:05.661Z,97238.44
2022-09-18T15:07:31.916Z,97252.03
2022-09-18T15:09:58.417Z,97240.56
2022-09-18T15:12:24.684Z,97242.16
2022-09-18T15:14:50.941Z,97244.81
2022-09-18T15:17:17.489Z,97242.69
2022-09-18T15:19:43.701Z,97253.94
2022-09-18T15:22:09.923Z,97246.72
2022-09-18T15:24:36.266Z,97254.47
2022-09-18T15:27:02.505Z,97236.56
2022-09-18T15:29:28.838Z,97251.53
2022-09-18T15:31:55.265Z,97259.28
2022-09-18T15:34:21.583Z,97256.59
2022-09-18T15:36:49.132Z,97259.28
2022-09-18T15:39:15.349Z,97258.19
2022-09-18T15:41:41.575Z,97254.75
2022-09-18T15:44:07.797Z,97261.94
2022-09-18T15:46:34.080Z,97254.75
2022-09-18T15:49:00.351Z,97259.00
2022-09-18T15:51:26.669Z,97254.75
2022-09-18T15:53:52.910Z,97248.59
2022-09-18T15:56:19.124Z,97255.53
2022-09-18T15:58:45.328Z,97255.53
2022-09-18T16:01:11.661Z,97233.88
2022-09-18T16:03:38.109Z,97255.53
2022-09-18T16:06:04.579Z,97260.09
2022-09-18T16:08:30.842Z,97254.47
2022-09-18T16:10:57.241Z,97256.34
2022-09-18T16:13:23.490Z,97263.53
2022-09-18T16:15:49.830Z,97258.19
2022-09-18T16:18:16.129Z,97252.84
2022-09-18T16:20:42.456Z,97261.94
2022-09-18T16:23:08.923Z,97253.13
2022-09-18T16:25:35.155Z,97258.47
2022-09-18T16:28:01.355Z,97248.06
2022-09-18T16:30:27.716Z,97245.38
2022-09-18T16:32:53.945Z,97237.38
2022-09-18T16:35:20.225Z,97241.13
2022-09-18T16:37:46.403Z,97240.03
2022-09-18T16:40:12.636Z,97241.13
2022-09-18T16:42:38.962Z,97244.56
2022-09-18T16:45:05.224Z,97237.63
2022-09-18T16:47:31.482Z,97238.44
2022-09-18T16:49:57.834Z,97233.09
2022-09-18T16:52:24.144Z,97233.38
2022-09-18T16:54:50.531Z,97243.25
2022-09-18T16:57:16.907Z,97239.75
2022-09-18T16:59:43.150Z,97238.97
2022-09-18T17:02:09.452Z,97241.63
2022-09-18T17:04:35.662Z,97245.09
2022-09-18T17:07:02.060Z,97234.69
2022-09-18T17:09:28.339Z,97236.06
2022-09-18T17:11:54.692Z,97235.78
2022-09-18T17:14:20.967Z,97232.28
2022-09-18T17:16:47.310Z,97233.09
2022-09-18T17:19:13.557Z,97229.91
2022-09-18T17:21:39.780Z,97227.22
2022-09-18T17:24:06.047Z,97234.72
2022-09-18T17:26:32.511Z,97233.13
2022-09-18T17:28:58.741Z,97242.25
2022-09-18T17:31:25.063Z,97239.31
2022-09-18T17:33:51.332Z,97233.19
2022-09-18T17:36:17.631Z,97232.13
2022-09-18T17:38:43.986Z,97226.22
2022-09-18T17:41:10.433Z,97227.84
2022-09-18T17:43:36.806Z,97227.84
2022-09-18T17:46:03.025Z,97233.72
2022-09-18T17:48:29.301Z,97228.38
2022-09-18T17:50:55.520Z,97241.75
2022-09-18T17:53:21.778Z,97223.03
2022-09-18T17:55:48.105Z,97246.56
2022-09-18T17:58:14.336Z,97250.28
2022-09-18T18:00:40.615Z,97243.34
2022-09-18T18:03:07.024Z,97240.13
2022-09-18T18:05:33.258Z,97243.88
2022-09-18T18:07:59.458Z,97249.50
2022-09-18T18:10:25.674Z,97245.22
2022-09-18T18:12:52.038Z,97237.47
2022-09-18T18:15:18.460Z,97242.53
2022-09-18T18:17:44.803Z,97241.72
2022-09-18T18:20:11.038Z,97243.84
2022-09-18T18:22:37.302Z,97238.00
2022-09-18T18:25:03.784Z,97240.66
2022-09-18T18:27:34.591Z,97243.34
2022-09-18T18:30:00.806Z,97245.47
2022-09-18T18:32:27.063Z,97247.59
2022-09-18T18:34:53.356Z,97246.00
2022-09-18T18:37:19.585Z,97255.06
2022-09-18T18:39:45.814Z,97247.34
2022-09-18T18:42:12.223Z,97256.16
2022-09-18T18:44:38.485Z,97262.53
2022-09-18T18:47:04.793Z,97258.28
2022-09-18T18:49:31.020Z,97252.94
2022-09-18T18:51:57.367Z,97249.47
2022-09-18T18:54:23.599Z,97245.97
2022-09-18T18:56:49.832Z,97252.94
2022-09-18T18:59:16.153Z,97247.59
2022-09-18T19:01:42.492Z,97257.47
2022-09-18T19:04:08.856Z,97249.69
2022-09-18T19:06:35.150Z,97236.34
2022-09-18T19:09:01.337Z,97247.84
2022-09-18T19:11:27.666Z,97261.19
2022-09-18T19:13:55.874Z,97270.25
2022-09-18T19:16:22.348Z,97257.72
2022-09-18T19:18:48.718Z,97258.78
2022-09-18T19:21:14.977Z,97261.47
2022-09-18T19:23:41.235Z,97264.91
2022-09-18T19:26:07.486Z,97259.56
2022-09-18T19:28:33.845Z,97266.81
2022-09-18T19:31:00.055Z,97261.47
2022-09-18T19:33:26.293Z,97261.47
2022-09-18T19:35:52.529Z,97259.84
2022-09-18T19:38:18.769Z,97262.50
2022-09-18T19:40:45.031Z,97260.09
2022-09-18T19:43:11.427Z,97261.19
2022-09-18T19:45:37.710Z,97255.84
2022-09-18T19:48:03.960Z,97255.84
2022-09-18T19:50:30.332Z,97260.38
2022-09-18T19:52:56.544Z,97258.75
2022-09-18T19:55:22.781Z,97262.50
2022-09-18T19:57:49.045Z,97264.63
2022-09-18T20:00:16.655Z,97264.91
2022-09-18T20:02:42.905Z,97276.41
2022-09-18T20:05:09.125Z,97277.44
2022-09-18T20:07:40.579Z,97263.81
2022-09-18T20:10:06.806Z,97258.75
2022-09-18T20:12:35.626Z,97265.16
2022-09-18T20:15:02.107Z,97265.16
2022-09-18T20:17:28.297Z,97265.16
2022-09-18T20:19:54.549Z,97267.03
2022-09-18T20:22:20.761Z,97260.09
2022-09-18T20:24:46.999Z,97260.09
2022-09-18T20:30:00.640Z,97259.28
2022-09-18T20:32:26.886Z,97260.38
2022-09-18T20:34:53.110Z,97254.22
2022-09-18T20:37:19.400Z,97249.69
2022-09-18T20:39:45.864Z,97249.91
2022-09-18T20:42:12.135Z,97255.53
2022-09-18T20:44:38.389Z,97254.47
2022-09-18T20:47:06.745Z,97247.53
2022-09-18T20:49:33.100Z,97253.94
2022-09-18T20:51:59.390Z,97254.97
2022-09-18T20:54:25.660Z,97242.72
2022-09-18T20:56:52.084Z,97239.50
2022-09-18T20:59:18.429Z,97240.59
2022-09-18T21:01:44.823Z,97245.13
2022-09-18T21:04:11.258Z,97255.81
2022-09-18T21:06:38.622Z,97252.38
2022-09-18T21:09:04.849Z,97250.00
2022-09-18T21:11:31.043Z,97262.81
2022-09-18T21:13:57.330Z,97262.03
2022-09-18T21:16:23.585Z,97261.25
2022-09-18T21:18:49.914Z,97260.47
2022-09-18T21:21:16.114Z,97263.13
2022-09-18T21:23:42.405Z,97248.69
2022-09-18T21:26:08.749Z,97252.97
2022-09-18T21:28:34.998Z,97248.69
2022-09-18T21:31:01.292Z,97246.81
2022-09-18T21:33:27.630Z,97251.63
2022-09-18T21:35:53.956Z,97253.47
2022-09-18T21:38:20.238Z,97244.94
2022-09-18T21:40:46.778Z,97253.47
2022-09-18T21:43:13.067Z,97253.75
2022-09-18T21:48:08.634Z,97250.78
2022-09-18T21:50:35.020Z,97256.66
2022-09-18T21:53:01.273Z,97256.09
2022-09-18T21:55:27.534Z,97263.34
2022-09-18T21:57:53.827Z,97257.69
2022-09-18T22:00:20.124Z,97264.91
2022-09-18T22:02:55.623Z,97259.78
2022-09-18T22:05:21.958Z,97249.34
2022-09-18T22:07:48.373Z,97257.34
2022-09-18T22:10:14.578Z,97252.78
2022-09-18T22:12:40.858Z,97257.34
2022-09-18T22:15:07.095Z,97252.75
2022-09-18T22:17:33.380Z,97247.41
2022-09-18T22:19:59.610Z,97242.06
2022-09-18T22:22:25.819Z,97246.38
2022-09-18T22:24:52.017Z,97249.03
2022-09-18T22:27:18.382Z,97253.63
2022-09-18T22:29:44.945Z,97248.56
2022-09-18T22:32:11.375Z,97237.88
2022-09-18T22:34:37.830Z,97243.25
2022-09-18T22:37:04.194Z,97237.91
2022-09-18T22:39:30.651Z,97236.84
2022-09-18T22:41:56.953Z,97239.53
2022-09-18T22:44:24.597Z,97236.88
2022-09-18T22:46:50.964Z,97243.84
2022-09-18T22:49:17.356Z,97242.00
2022-09-18T22:51:43.571Z,97245.69
2022-09-18T22:54:09.863Z,97245.44
2022-09-18T22:56:36.101Z,97248.13
2022-09-18T22:59:02.343Z,97242.78
2022-09-18T23:01:28.653Z,97241.47
2022-09-18T23:03:54.862Z,97249.75
2022-09-18T23:06:25.260Z,97242.00
2022-09-18T23:08:51.688Z,97246.53
2022-09-18T23:11:17.912Z,97246.56
2022-09-18T23:13:44.164Z,97245.75
2022-09-18T23:16:10.500Z,97251.91
2022-09-18T23:18:36.719Z,97247.59
2022-09-18T23:21:02.997Z,97254.56
2022-09-18T23:23:29.200Z,97251.88
2022-09-18T23:25:55.400Z,97250.81
2022-09-18T23:28:24.169Z,97251.34
2022-09-18T23:30:50.404Z,97260.97
2022-09-18T23:33:16.658Z,97267.03
2022-09-18T23:35:42.938Z,97273.19
2022-09-18T23:38:09.291Z,97275.59
2022-09-18T23:40:35.607Z,97276.38
2022-09-18T23:43:01.847Z,97292.91
2022-09-18T23:45:28.350Z,97291.03
2022-09-18T23:47:54.614Z,97291.56
2022-09-18T23:50:21.128Z,97293.97
2022-09-18T23:52:47.344Z,97300.88
2022-09-18T23:55:13.563Z,97301.41
2022-09-18T23:57:39.780Z,97297.38
